createdAt,value
2018-12-18T00:00:16.337Z,39.3
2018-12-18T00:01:16.351Z,30.3
2018-12-18T00:02:16.339Z,45.3
2018-12-18T00:03:16.375Z,42.3
2018-12-18T00:04:16.311Z,45.3
2018-12-18T00:05:16.327Z,39.3
2018-12-18T00:06:16.340Z,45.3
2018-12-18T00:07:16.420Z,45.3
2018-12-18T00:08:16.331Z,39.3
2018-12-18T00:09:16.315Z,39.3
2018-12-18T00:10:16.326Z,42.3
2018-12-18T00:11:16.339Z,39.3
2018-12-18T00:12:16.409Z,42.3
2018-12-18T00:13:16.353Z,42.3
2018-12-18T00:14:16.299Z,39.3
2018-12-18T00:15:16.319Z,39.3
2018-12-18T00:16:16.334Z,45.3
2018-12-18T00:17:16.399Z,36.3
2018-12-18T00:18:16.415Z,33.3
2018-12-18T00:19:16.333Z,42.3
2018-12-18T00:20:16.290Z,48.3
2018-12-18T00:21:16.333Z,36.3
2018-12-18T00:22:16.335Z,45.3
2018-12-18T00:23:16.397Z,42.3
2018-12-18T00:24:16.338Z,45.3
2018-12-18T00:25:16.288Z,36.3
2018-12-18T00:26:16.347Z,36.3
2018-12-18T00:27:16.365Z,36.3
2018-12-18T00:28:16.347Z,42.3
2018-12-18T00:29:16.335Z,36.3
2018-12-18T00:30:16.348Z,36.3
2018-12-18T00:31:16.307Z,30.3
2018-12-18T00:32:16.396Z,33.3
2018-12-18T00:33:16.327Z,21.3
2018-12-18T00:34:16.383Z,21.3
2018-12-18T00:35:16.328Z,21.3
2018-12-18T00:36:16.288Z,24.3
2018-12-18T00:37:16.309Z,39.3
2018-12-18T00:38:16.395Z,33.3
2018-12-18T00:39:16.332Z,36.3
2018-12-18T00:40:16.406Z,30.3
2018-12-18T00:41:16.289Z,54.3
2018-12-18T00:42:16.307Z,42.3
2018-12-18T00:43:16.310Z,42.3
2018-12-18T00:44:16.312Z,42.3
2018-12-18T00:45:16.401Z,36.3
2018-12-18T00:46:16.308Z,36.3
2018-12-18T00:47:16.287Z,39.3
2018-12-18T00:48:16.315Z,45.3
2018-12-18T00:49:16.325Z,45.3
2018-12-18T00:50:16.374Z,33.3
2018-12-18T00:51:16.317Z,27.3
2018-12-18T00:52:16.308Z,33.3
2018-12-18T00:53:16.326Z,36.3
2018-12-18T00:54:16.392Z,36.3
2018-12-18T00:55:16.321Z,33.3
2018-12-18T00:56:16.332Z,45.3
2018-12-18T00:57:16.320Z,45.3
2018-12-18T00:58:16.371Z,42.3
2018-12-18T00:59:16.461Z,51.3
2018-12-18T01:00:16.336Z,36.3
2018-12-18T01:01:16.380Z,48.3
2018-12-18T01:02:16.367Z,39.3
2018-12-18T01:03:16.308Z,24.3
2018-12-18T01:04:16.290Z,33.3
2018-12-18T01:05:16.313Z,33.3
2018-12-18T01:06:16.398Z,33.3
2018-12-18T01:07:16.321Z,36.3
2018-12-18T01:08:16.328Z,33.3
2018-12-18T01:09:16.289Z,42.3
2018-12-18T01:10:16.329Z,36.3
2018-12-18T01:11:16.402Z,42.3
2018-12-18T01:12:16.323Z,36.3
2018-12-18T01:13:16.326Z,39.3
2018-12-18T01:14:16.360Z,42.3
2018-12-18T01:15:16.306Z,42.3
2018-12-18T01:16:16.370Z,39.3
2018-12-18T01:17:16.341Z,42.3
2018-12-18T01:18:16.345Z,36.3
2018-12-18T01:19:16.309Z,54.3
2018-12-18T01:20:16.283Z,42.3
2018-12-18T01:21:16.389Z,42.3
2018-12-18T01:22:16.368Z,39.3
2018-12-18T01:23:16.326Z,45.3
2018-12-18T01:24:16.303Z,39.3
2018-12-18T01:25:16.359Z,36.3
2018-12-18T01:26:16.318Z,33.3
2018-12-18T01:27:16.317Z,48.3
2018-12-18T01:28:16.345Z,39.3
2018-12-18T01:29:16.381Z,51.3
2018-12-18T01:30:16.294Z,42.3
2018-12-18T01:31:16.264Z,42.3
2018-12-18T01:32:16.313Z,36.3
2018-12-18T01:33:16.321Z,36.3
2018-12-18T01:34:16.365Z,33.3
2018-12-18T01:35:16.297Z,36.3
2018-12-18T01:36:16.261Z,48.3
2018-12-18T01:37:16.314Z,36.3
2018-12-18T01:38:16.373Z,36.3
2018-12-18T01:39:16.323Z,36.3
2018-12-18T01:40:16.311Z,33.3
2018-12-18T01:41:16.267Z,45.3
2018-12-18T01:42:16.319Z,45.3
2018-12-18T01:43:16.315Z,42.3
2018-12-18T01:44:16.281Z,30.3
2018-12-18T01:45:16.352Z,36.3
2018-12-18T01:46:16.290Z,36.3
2018-12-18T01:47:16.261Z,39.3
2018-12-18T01:48:16.292Z,27.3
2018-12-18T01:49:16.294Z,36.3
2018-12-18T01:50:16.299Z,42.3
2018-12-18T01:51:16.377Z,42.3
2018-12-18T01:52:16.335Z,42.3
2018-12-18T01:53:16.293Z,51.3
2018-12-18T01:54:16.301Z,42.3
2018-12-18T01:55:16.307Z,39.3
2018-12-18T01:56:16.281Z,33.3
2018-12-18T01:57:16.348Z,36.3
2018-12-18T01:58:16.261Z,36.3
2018-12-18T01:59:16.285Z,36.3
2018-12-18T02:00:16.379Z,39.3
2018-12-18T02:01:16.340Z,33.3
2018-12-18T02:02:16.376Z,30.3
2018-12-18T02:03:16.259Z,39.3
2018-12-18T02:04:16.265Z,27.3
2018-12-18T02:05:16.287Z,33.3
2018-12-18T02:06:16.343Z,36.3
2018-12-18T02:07:16.336Z,42.3
2018-12-18T02:08:16.328Z,39.3
2018-12-18T02:09:16.275Z,42.3
2018-12-18T02:10:16.366Z,48.3
2018-12-18T02:11:16.340Z,42.3
2018-12-18T02:12:16.290Z,45.3
2018-12-18T02:13:16.373Z,30.3
2018-12-18T02:14:16.245Z,42.3
2018-12-18T02:15:16.277Z,36.3
2018-12-18T02:16:16.307Z,33.3
2018-12-18T02:17:16.305Z,36.3
2018-12-18T02:18:16.347Z,36.3
2018-12-18T02:19:16.278Z,36.3
2018-12-18T02:20:16.290Z,33.3
2018-12-18T02:21:16.359Z,39.3
2018-12-18T02:22:16.294Z,36.3
2018-12-18T02:23:16.286Z,45.3
2018-12-18T02:24:16.272Z,57.3
2018-12-18T02:25:16.256Z,42.3
2018-12-18T02:26:16.324Z,27.3
2018-12-18T02:27:16.414Z,30.3
2018-12-18T02:28:16.258Z,30.3
2018-12-18T02:29:16.397Z,33.3
2018-12-18T02:30:16.261Z,33.3
2018-12-18T02:31:16.239Z,39.3
2018-12-18T02:32:16.350Z,33.3
2018-12-18T02:33:16.338Z,30.3
2018-12-18T02:34:16.270Z,33.3
2018-12-18T02:35:16.268Z,30.3
2018-12-18T02:36:16.233Z,48.3
2018-12-18T02:37:16.268Z,36.3
2018-12-18T02:38:16.352Z,36.3
2018-12-18T02:39:16.415Z,30.3
2018-12-18T02:40:16.279Z,33.3
2018-12-18T02:41:16.277Z,39.3
2018-12-18T02:42:16.271Z,30.3
2018-12-18T02:43:16.273Z,36.3
2018-12-18T02:44:16.341Z,36.3
2018-12-18T02:45:16.321Z,36.3
2018-12-18T02:46:16.335Z,48.3
2018-12-18T02:47:16.321Z,48.3
2018-12-18T02:48:16.263Z,39.3
2018-12-18T02:49:16.261Z,39.3
2018-12-18T02:50:16.293Z,33.3
2018-12-18T02:51:16.263Z,33.3
2018-12-18T02:52:16.316Z,45.3
2018-12-18T02:53:16.221Z,39.3
2018-12-18T02:54:16.334Z,45.3
2018-12-18T02:55:16.245Z,36.3
2018-12-18T02:56:16.281Z,27.3
2018-12-18T02:57:16.253Z,42.3
2018-12-18T02:58:16.330Z,45.3
2018-12-18T02:59:16.248Z,42.3
2018-12-18T03:00:16.250Z,30.3
2018-12-18T03:01:16.270Z,39.3
2018-12-18T03:02:16.260Z,42.3
2018-12-18T03:03:16.299Z,42.3
2018-12-18T03:04:22.902Z,39.3
2018-12-18T03:05:16.259Z,51.3
2018-12-18T03:06:16.263Z,45.3
2018-12-18T03:07:16.278Z,45.3
2018-12-18T03:08:16.309Z,42.3
2018-12-18T03:09:16.286Z,36.3
2018-12-18T03:10:16.264Z,36.3
2018-12-18T03:11:16.243Z,39.3
2018-12-18T03:12:16.276Z,36.3
2018-12-18T03:13:16.355Z,36.3
2018-12-18T03:14:16.234Z,36.3
2018-12-18T03:15:16.272Z,30.3
2018-12-18T03:16:16.250Z,33.3
2018-12-18T03:17:16.249Z,27.3
2018-12-18T03:18:16.344Z,30.3
2018-12-18T03:19:16.252Z,36.3
2018-12-18T03:20:16.213Z,39.3
2018-12-18T03:21:16.258Z,30.3
2018-12-18T03:22:16.272Z,39.3
2018-12-18T03:23:16.336Z,36.3
2018-12-18T03:24:16.244Z,33.3
2018-12-18T03:25:16.195Z,36.3
2018-12-18T03:26:16.299Z,42.3
2018-12-18T03:27:16.251Z,33.3
2018-12-18T03:28:16.237Z,33.3
2018-12-18T03:29:16.235Z,36.3
2018-12-18T03:30:16.309Z,33.3
2018-12-18T03:31:16.221Z,45.3
2018-12-18T03:32:16.258Z,36.3
2018-12-18T03:33:16.235Z,36.3
2018-12-18T03:34:16.329Z,30.3
2018-12-18T03:35:16.266Z,42.3
2018-12-18T03:36:16.261Z,33.3
2018-12-18T03:37:16.294Z,36.3
2018-12-18T03:38:16.246Z,30.3
2018-12-18T03:39:16.252Z,33.3
2018-12-18T03:40:16.309Z,45.3
2018-12-18T03:41:16.200Z,42.3
2018-12-18T03:42:16.270Z,45.3
2018-12-18T03:43:16.294Z,42.3
2018-12-18T03:44:16.238Z,39.3
2018-12-18T03:45:16.247Z,39.3
2018-12-18T03:46:16.254Z,45.3
2018-12-18T03:47:16.266Z,42.3
2018-12-18T03:48:16.235Z,39.3
2018-12-18T03:49:16.222Z,45.3
2018-12-18T03:50:16.244Z,36.3
2018-12-18T03:51:16.296Z,36.3
2018-12-18T03:52:16.193Z,39.3
2018-12-18T03:53:16.262Z,39.3
2018-12-18T03:54:16.284Z,30.3
2018-12-18T03:55:16.244Z,30.3
2018-12-18T03:56:16.218Z,30.3
2018-12-18T03:57:16.223Z,30.3
2018-12-18T03:58:16.244Z,24.3
2018-12-18T03:59:16.226Z,27.3
2018-12-18T04:00:16.251Z,33.3
2018-12-18T04:01:16.209Z,36.3
2018-12-18T04:02:16.234Z,36.3
2018-12-18T04:03:16.253Z,39.3
2018-12-18T04:04:16.210Z,48.3
2018-12-18T04:05:16.212Z,39.3
2018-12-18T04:06:16.242Z,45.3
2018-12-18T04:07:16.415Z,30.3
2018-12-18T04:08:16.315Z,36.3
2018-12-18T04:09:16.201Z,27.3
2018-12-18T04:10:16.228Z,39.3
2018-12-18T04:11:16.298Z,39.3
2018-12-18T04:12:16.224Z,45.3
2018-12-18T04:13:16.241Z,45.3
2018-12-18T04:14:16.265Z,45.3
2018-12-18T04:15:16.325Z,39.3
2018-12-18T04:16:16.199Z,42.3
2018-12-18T04:17:16.224Z,48.3
2018-12-18T04:18:16.267Z,45.3
2018-12-18T04:19:16.181Z,42.3
2018-12-18T04:20:16.269Z,33.3
2018-12-18T04:21:16.271Z,27.3
2018-12-18T04:22:16.223Z,33.3
2018-12-18T04:23:16.271Z,45.3
2018-12-18T04:24:16.226Z,36.3
2018-12-18T04:25:16.162Z,30.3
2018-12-18T04:26:16.300Z,27.3
2018-12-18T04:27:16.243Z,21.3
2018-12-18T04:28:16.277Z,30.3
2018-12-18T04:29:16.218Z,33.3
2018-12-18T04:30:16.179Z,24.3
2018-12-18T04:31:16.194Z,21.3
2018-12-18T04:32:16.283Z,12.4
2018-12-18T04:33:16.224Z,18.3
2018-12-18T04:34:16.227Z,18.3
2018-12-18T04:35:16.312Z,21.3
2018-12-18T04:36:16.174Z,21.3
2018-12-18T04:37:16.289Z,27.3
2018-12-18T04:38:16.212Z,15.4
2018-12-18T04:39:16.207Z,18.3
2018-12-18T04:40:16.209Z,24.3
2018-12-18T04:41:16.194Z,18.3
2018-12-18T04:42:16.261Z,27.3
2018-12-18T04:43:16.194Z,33.3
2018-12-18T04:44:16.205Z,39.3
2018-12-18T04:45:17.081Z,42.3
2018-12-18T04:46:16.200Z,33.3
2018-12-18T04:47:16.238Z,30.3
2018-12-18T04:48:16.202Z,21.3
2018-12-18T04:49:16.206Z,21.3
2018-12-18T04:50:16.206Z,30.3
2018-12-18T04:51:16.205Z,39.3
2018-12-18T04:52:16.222Z,39.3
2018-12-18T04:53:16.189Z,18.3
2018-12-18T04:54:16.210Z,27.3
2018-12-18T04:55:16.275Z,24.3
2018-12-18T04:56:16.273Z,24.3
2018-12-18T04:57:16.214Z,27.3
2018-12-18T04:58:16.258Z,33.3
2018-12-18T04:59:16.259Z,18.3
2018-12-18T05:00:16.198Z,39.3
2018-12-18T05:01:16.203Z,27.3
2018-12-18T05:02:16.179Z,21.3
2018-12-18T05:03:16.238Z,24.3
2018-12-18T05:04:16.193Z,36.3
2018-12-18T05:05:16.242Z,15.4
2018-12-18T05:06:16.191Z,30.3
2018-12-18T05:07:16.202Z,27.3
2018-12-18T05:08:16.233Z,24.3
2018-12-18T05:09:16.141Z,24.3
2018-12-18T05:10:16.257Z,24.3
2018-12-18T05:11:16.175Z,36.3
2018-12-18T05:12:16.186Z,18.3
2018-12-18T05:13:16.196Z,21.3
2018-12-18T05:14:16.207Z,36.3
2018-12-18T05:15:16.241Z,27.3
2018-12-18T05:16:16.232Z,27.3
2018-12-18T05:17:16.174Z,24.3
2018-12-18T05:18:16.171Z,24.3
2018-12-18T05:19:16.153Z,39.3
2018-12-18T05:20:16.211Z,36.3
2018-12-18T05:21:16.231Z,18.3
2018-12-18T05:22:16.170Z,42.3
2018-12-18T05:23:16.180Z,30.3
2018-12-18T05:24:16.161Z,39.3
2018-12-18T05:25:16.138Z,27.3
2018-12-18T05:26:16.248Z,30.3
2018-12-18T05:27:16.250Z,18.3
2018-12-18T05:28:17.485Z,18.3
2018-12-18T05:29:16.160Z,21.3
2018-12-18T05:30:16.169Z,18.3
2018-12-18T05:31:16.196Z,15.4
2018-12-18T05:32:16.203Z,27.3
2018-12-18T05:33:16.158Z,21.3
2018-12-18T05:34:16.163Z,27.3
2018-12-18T05:35:16.180Z,24.3
2018-12-18T05:36:16.213Z,15.4
2018-12-18T05:37:16.173Z,15.4
2018-12-18T05:38:16.248Z,27.3
2018-12-18T05:39:16.176Z,6.6
2018-12-18T05:40:16.181Z,18.3
2018-12-18T05:41:16.256Z,12.4
2018-12-18T05:42:16.180Z,18.3
2018-12-18T05:43:16.166Z,21.3
2018-12-18T05:44:16.244Z,15.4
2018-12-18T05:45:16.167Z,12.4
2018-12-18T05:46:16.182Z,15.4
2018-12-18T05:47:16.201Z,15.4
2018-12-18T05:48:16.237Z,36.3
2018-12-18T05:49:16.189Z,30.3
2018-12-18T05:50:16.246Z,18.3
2018-12-18T05:51:16.155Z,12.4
2018-12-18T05:52:16.134Z,18.3
2018-12-18T05:53:16.164Z,12.4
2018-12-18T05:54:16.167Z,18.3
2018-12-18T05:55:16.225Z,18.3
2018-12-18T05:56:16.163Z,18.3
2018-12-18T05:57:16.170Z,15.4
2018-12-18T05:58:16.126Z,15.4
2018-12-18T05:59:16.217Z,15.4
2018-12-18T06:00:16.180Z,6.6
2018-12-18T06:01:16.161Z,6.6
2018-12-18T06:02:16.145Z,12.4
2018-12-18T06:03:16.121Z,9.5
2018-12-18T06:04:16.227Z,6.6
2018-12-18T06:05:16.168Z,6.6
2018-12-18T06:06:16.164Z,6.6
2018-12-18T06:07:16.164Z,12.4
2018-12-18T06:08:16.131Z,12.4
2018-12-18T06:09:16.150Z,12.4
2018-12-18T06:10:16.206Z,6.6
2018-12-18T06:11:16.161Z,1.8
2018-12-18T06:12:16.161Z,9.5
2018-12-18T06:13:16.153Z,9.5
2018-12-18T06:14:16.175Z,12.4
2018-12-18T06:15:16.139Z,12.4
2018-12-18T06:16:16.147Z,12.4
2018-12-18T06:17:16.142Z,3.9
2018-12-18T06:18:16.160Z,9.5
2018-12-18T06:19:16.214Z,9.5
2018-12-18T06:20:16.106Z,12.4
2018-12-18T06:21:16.218Z,15.4
2018-12-18T06:22:16.158Z,12.4
2018-12-18T06:23:16.214Z,15.4
2018-12-18T06:24:16.221Z,15.4
2018-12-18T06:25:17.907Z,15.4
2018-12-18T06:26:16.167Z,9.5
2018-12-18T06:27:16.236Z,12.4
2018-12-18T06:28:16.167Z,9.5
2018-12-18T06:29:16.195Z,6.6
2018-12-18T06:30:16.175Z,9.5
2018-12-18T06:31:16.113Z,9.5
2018-12-18T06:32:16.131Z,9.5
2018-12-18T06:33:16.151Z,6.6
2018-12-18T06:34:16.205Z,15.4
2018-12-18T06:35:16.160Z,15.4
2018-12-18T06:36:16.096Z,21.3
2018-12-18T06:37:16.134Z,12.4
2018-12-18T06:38:16.204Z,18.3
2018-12-18T06:39:16.196Z,15.4
2018-12-18T06:40:16.119Z,15.4
2018-12-18T06:41:16.108Z,18.3
2018-12-18T06:42:16.107Z,12.4
2018-12-18T06:43:16.122Z,12.4
2018-12-18T06:44:16.186Z,6.6
2018-12-18T06:45:16.126Z,15.4
2018-12-18T06:46:16.122Z,9.5
2018-12-18T06:47:16.169Z,9.5
2018-12-18T06:48:16.127Z,6.6
2018-12-18T06:49:16.118Z,12.4
2018-12-18T06:50:16.200Z,21.3
2018-12-18T06:51:16.154Z,24.3
2018-12-18T06:52:16.091Z,15.4
2018-12-18T06:53:16.182Z,9.5
2018-12-18T06:54:16.116Z,9.5
2018-12-18T06:55:16.138Z,12.4
2018-12-18T06:56:16.127Z,18.3
2018-12-18T06:57:16.161Z,12.4
2018-12-18T06:58:16.148Z,9.5
2018-12-18T06:59:16.118Z,12.4
2018-12-18T07:00:16.126Z,15.4
2018-12-18T07:01:16.154Z,15.4
2018-12-18T07:02:16.177Z,12.4
2018-12-18T07:03:16.092Z,12.4
2018-12-18T07:04:16.115Z,12.4
2018-12-18T07:05:18.324Z,12.4
2018-12-18T07:06:16.203Z,12.4
2018-12-18T07:07:16.115Z,18.3
2018-12-18T07:08:16.077Z,12.4
2018-12-18T07:09:16.103Z,6.6
2018-12-18T07:10:16.130Z,9.5
2018-12-18T07:11:16.185Z,6.6
2018-12-18T07:12:16.140Z,12.4
2018-12-18T07:13:16.130Z,6.6
2018-12-18T07:14:16.085Z,15.4
2018-12-18T07:15:16.109Z,12.4
2018-12-18T07:16:16.193Z,21.3
2018-12-18T07:17:16.181Z,21.3
2018-12-18T07:18:16.120Z,24.3
2018-12-18T07:19:16.087Z,21.3
2018-12-18T07:20:16.096Z,21.3
2018-12-18T07:21:16.104Z,12.4
2018-12-18T07:22:16.167Z,18.3
2018-12-18T07:23:16.203Z,30.3
2018-12-18T07:24:16.112Z,27.3
2018-12-18T07:25:16.073Z,36.3
2018-12-18T07:26:16.127Z,24.3
2018-12-18T07:27:16.135Z,21.3
2018-12-18T07:28:16.169Z,24.3
2018-12-18T07:29:16.137Z,15.4
2018-12-18T07:30:16.136Z,12.4
2018-12-18T07:31:16.072Z,18.3
2018-12-18T07:32:16.110Z,24.3
2018-12-18T07:33:16.091Z,21.3
2018-12-18T07:34:16.182Z,18.3
2018-12-18T07:35:16.102Z,24.3
2018-12-18T07:36:16.145Z,6.6
2018-12-18T07:37:16.113Z,18.3
2018-12-18T07:38:16.162Z,3.9
2018-12-18T07:39:16.123Z,21.3
2018-12-18T07:40:16.100Z,21.3
2018-12-18T07:41:16.132Z,24.3
2018-12-18T07:42:16.089Z,24.3
2018-12-18T07:43:16.105Z,15.4
2018-12-18T07:44:16.114Z,24.3
2018-12-18T07:45:16.086Z,24.3
2018-12-18T07:46:16.164Z,6.6
2018-12-18T07:47:16.142Z,24.3
2018-12-18T07:48:16.085Z,12.4
2018-12-18T07:49:16.108Z,15.4
2018-12-18T07:50:16.105Z,27.3
2018-12-18T07:51:16.110Z,27.3
2018-12-18T07:52:16.138Z,18.3
2018-12-18T07:53:16.177Z,18.3
2018-12-18T07:54:16.097Z,15.4
2018-12-18T07:55:16.094Z,21.3
2018-12-18T07:56:16.082Z,15.4
2018-12-18T07:57:16.134Z,9.5
2018-12-18T07:58:16.085Z,18.3
2018-12-18T07:59:16.092Z,18.3
2018-12-18T08:00:16.081Z,27.3
2018-12-18T08:01:16.138Z,12.4
2018-12-18T08:02:16.172Z,24.3
2018-12-18T08:03:16.080Z,12.4
2018-12-18T08:04:16.087Z,9.5
2018-12-18T08:05:16.082Z,21.3
2018-12-18T08:06:16.160Z,18.3
2018-12-18T08:07:16.081Z,15.4
2018-12-18T08:08:16.066Z,24.3
2018-12-18T08:09:16.111Z,18.3
2018-12-18T08:10:16.073Z,12.4
2018-12-18T08:11:16.154Z,12.4
2018-12-18T08:12:16.075Z,9.5
2018-12-18T08:13:16.174Z,18.3
2018-12-18T08:14:16.045Z,24.3
2018-12-18T08:15:16.098Z,18.3
2018-12-18T08:16:16.088Z,15.4
2018-12-18T08:17:16.087Z,12.4
2018-12-18T08:18:16.184Z,24.3
2018-12-18T08:19:16.066Z,21.3
2018-12-18T08:20:16.096Z,27.3
2018-12-18T08:21:16.109Z,12.4
2018-12-18T08:22:16.158Z,18.3
2018-12-18T08:23:16.161Z,9.5
2018-12-18T08:24:16.081Z,6.6
2018-12-18T08:25:16.062Z,6.6
2018-12-18T08:26:16.108Z,1.8
2018-12-18T08:27:16.201Z,6.6
2018-12-18T08:28:16.157Z,6.6
2018-12-18T08:29:16.156Z,0
2018-12-18T08:30:16.049Z,3.9
2018-12-18T08:31:16.050Z,6.6
2018-12-18T08:32:16.162Z,6.6
2018-12-18T08:33:16.218Z,3.9
2018-12-18T08:34:16.083Z,0
2018-12-18T08:35:16.094Z,3.9
2018-12-18T08:36:16.062Z,6.6
2018-12-18T08:37:16.091Z,6.6
2018-12-18T08:38:16.144Z,1.8
2018-12-18T08:39:16.194Z,0
2018-12-18T08:40:16.095Z,1.8
2018-12-18T08:41:16.077Z,0
2018-12-18T08:42:16.089Z,0
2018-12-18T08:43:16.150Z,1.8
2018-12-18T08:44:16.088Z,0
2018-12-18T08:45:16.160Z,0
2018-12-18T08:46:16.086Z,0
2018-12-18T08:47:16.041Z,6.6
2018-12-18T08:48:16.076Z,3.9
2018-12-18T08:49:16.075Z,3.9
2018-12-18T08:50:16.157Z,3.9
2018-12-18T08:51:16.074Z,0
2018-12-18T08:52:16.061Z,3.9
2018-12-18T08:53:16.075Z,1.8
2018-12-18T08:54:16.075Z,6.6
2018-12-18T08:55:16.156Z,15.4
2018-12-18T08:56:16.079Z,9.5
2018-12-18T08:57:16.037Z,6.6
2018-12-18T08:58:16.079Z,6.6
2018-12-18T08:59:16.083Z,6.6
2018-12-18T09:00:16.162Z,3.9
2018-12-18T09:01:16.069Z,3.9
2018-12-18T09:02:16.091Z,0
2018-12-18T09:03:16.041Z,0
2018-12-18T09:04:16.160Z,0
2018-12-18T09:05:16.083Z,0
2018-12-18T09:06:16.160Z,3.9
2018-12-18T09:07:16.092Z,9.5
2018-12-18T09:08:16.042Z,6.6
2018-12-18T09:09:16.108Z,12.4
2018-12-18T09:10:16.089Z,9.5
2018-12-18T09:11:16.169Z,3.9
2018-12-18T09:12:16.070Z,6.6
2018-12-18T09:13:16.066Z,9.5
2018-12-18T09:14:16.052Z,9.5
2018-12-18T09:15:16.128Z,6.6
2018-12-18T09:16:16.138Z,9.5
2018-12-18T09:17:16.058Z,9.5
2018-12-18T09:18:16.119Z,3.9
2018-12-18T09:19:16.033Z,6.6
2018-12-18T09:20:16.065Z,3.9
2018-12-18T09:21:16.129Z,3.9
2018-12-18T09:22:16.061Z,1.8
2018-12-18T09:23:16.091Z,6.6
2018-12-18T09:24:16.070Z,1.8
2018-12-18T09:25:16.054Z,3.9
2018-12-18T09:26:16.137Z,0
2018-12-18T09:27:16.079Z,6.6
2018-12-18T09:28:16.066Z,6.6
2018-12-18T09:29:16.073Z,3.9
2018-12-18T09:30:16.030Z,0
2018-12-18T09:31:16.141Z,0
2018-12-18T09:32:16.074Z,0
2018-12-18T09:33:16.054Z,1.8
2018-12-18T09:34:16.059Z,3.9
2018-12-18T09:35:16.074Z,9.5
2018-12-18T09:36:16.111Z,6.6
2018-12-18T09:37:16.149Z,6.6
2018-12-18T09:38:16.066Z,3.9
2018-12-18T09:39:16.062Z,6.6
2018-12-18T09:40:16.060Z,12.4
2018-12-18T09:41:16.034Z,9.5
2018-12-18T09:42:16.129Z,15.4
2018-12-18T09:43:16.130Z,6.6
2018-12-18T09:44:16.064Z,3.9
2018-12-18T09:45:16.052Z,1.8
2018-12-18T09:46:16.042Z,9.5
2018-12-18T09:47:16.059Z,9.5
2018-12-18T09:48:16.124Z,6.6
2018-12-18T09:49:16.045Z,9.5
2018-12-18T09:50:16.067Z,6.6
2018-12-18T09:51:16.059Z,6.6
2018-12-18T09:52:16.108Z,6.6
2018-12-18T09:53:16.051Z,6.6
2018-12-18T09:54:16.061Z,3.9
2018-12-18T09:55:16.041Z,9.5
2018-12-18T09:56:16.053Z,6.6
2018-12-18T09:57:16.080Z,6.6
2018-12-18T09:58:16.003Z,3.9
2018-12-18T09:59:16.128Z,0
2018-12-18T10:00:16.048Z,0
2018-12-18T10:01:16.047Z,6.6
2018-12-18T10:02:16.059Z,12.4
2018-12-18T10:03:16.026Z,6.6
2018-12-18T10:04:16.140Z,9.5
2018-12-18T10:05:16.049Z,6.6
2018-12-18T10:06:16.045Z,12.4
2018-12-18T10:07:16.052Z,6.6
2018-12-18T10:08:16.017Z,6.6
2018-12-18T10:09:16.092Z,6.6
2018-12-18T10:10:16.054Z,9.5
2018-12-18T10:11:16.061Z,3.9
2018-12-18T10:12:16.069Z,12.4
2018-12-18T10:13:16.059Z,9.5
2018-12-18T10:14:16.080Z,6.6
2018-12-18T10:15:16.066Z,3.9
2018-12-18T10:16:16.042Z,12.4
2018-12-18T10:17:16.184Z,12.4
2018-12-18T10:18:16.059Z,12.4
2018-12-18T10:19:16.022Z,9.5
2018-12-18T10:20:16.029Z,6.6
2018-12-18T10:21:16.056Z,12.4
2018-12-18T10:22:16.109Z,9.5
2018-12-18T10:23:16.034Z,3.9
2018-12-18T10:24:16.654Z,9.5
2018-12-18T10:25:16.020Z,15.4
2018-12-18T10:26:16.056Z,18.3
2018-12-18T10:27:16.089Z,9.5
2018-12-18T10:28:16.054Z,12.4
2018-12-18T10:29:16.100Z,12.4
2018-12-18T10:30:16.047Z,9.5
2018-12-18T10:31:16.083Z,6.6
2018-12-18T10:32:16.037Z,9.5
2018-12-18T10:33:16.048Z,15.4
2018-12-18T10:34:16.099Z,12.4
2018-12-18T10:35:16.018Z,3.9
2018-12-18T10:36:16.024Z,3.9
2018-12-18T10:37:16.046Z,18.3
2018-12-18T10:38:16.059Z,21.3
2018-12-18T10:39:16.103Z,18.3
2018-12-18T10:40:16.092Z,15.4
2018-12-18T10:41:16.077Z,9.5
2018-12-18T10:42:16.044Z,15.4
2018-12-18T10:43:16.051Z,6.6
2018-12-18T10:44:16.039Z,12.4
2018-12-18T10:45:16.038Z,15.4
2018-12-18T10:46:16.079Z,24.3
2018-12-18T10:47:16.066Z,15.4
2018-12-18T10:48:16.053Z,9.5
2018-12-18T10:49:16.097Z,12.4
2018-12-18T10:50:16.039Z,24.3
2018-12-18T10:51:16.039Z,18.3
2018-12-18T10:52:16.008Z,6.6
2018-12-18T10:53:16.058Z,15.4
2018-12-18T10:54:16.110Z,18.3
2018-12-18T10:55:16.053Z,18.3
2018-12-18T10:56:16.039Z,12.4
2018-12-18T10:57:16.026Z,3.9
2018-12-18T10:58:16.007Z,12.4
2018-12-18T10:59:17.803Z,24.3
2018-12-18T11:00:16.064Z,18.3
2018-12-18T11:01:16.040Z,21.3
2018-12-18T11:02:16.050Z,9.5
2018-12-18T11:03:16.002Z,30.3
2018-12-18T11:04:16.117Z,33.3
2018-12-18T11:05:16.053Z,24.3
2018-12-18T11:06:16.074Z,18.3
2018-12-18T11:07:16.066Z,15.4
2018-12-18T11:08:16.011Z,12.4
2018-12-18T11:09:16.095Z,12.4
2018-12-18T11:10:16.045Z,21.3
2018-12-18T11:11:16.125Z,18.3
2018-12-18T11:12:16.036Z,12.4
2018-12-18T11:13:16.047Z,12.4
2018-12-18T11:14:16.021Z,15.4
2018-12-18T11:15:16.127Z,27.3
2018-12-18T11:16:16.049Z,21.3
2018-12-18T11:17:16.098Z,18.3
2018-12-18T11:18:16.040Z,24.3
2018-12-18T11:19:16.026Z,18.3
2018-12-18T11:20:16.037Z,15.4
2018-12-18T11:21:16.111Z,27.3
2018-12-18T11:22:16.050Z,21.3
2018-12-18T11:23:16.127Z,27.3
2018-12-18T11:24:16.117Z,33.3
2018-12-18T11:25:16.009Z,30.3
2018-12-18T11:26:16.060Z,27.3
2018-12-18T11:27:16.064Z,36.3
2018-12-18T11:28:16.115Z,33.3
2018-12-18T11:29:16.055Z,30.3
2018-12-18T11:30:16.024Z,27.3
2018-12-18T11:31:16.109Z,33.3
2018-12-18T11:32:16.124Z,36.3
2018-12-18T11:33:16.047Z,36.3
2018-12-18T11:34:16.049Z,39.3
2018-12-18T11:35:16.102Z,36.3
2018-12-18T11:36:17.918Z,39.3
2018-12-18T11:37:16.070Z,27.3
2018-12-18T11:38:16.041Z,33.3
2018-12-18T11:39:16.047Z,30.3
2018-12-18T11:40:16.053Z,36.3
2018-12-18T11:41:16.110Z,36.3
2018-12-18T11:42:16.061Z,27.3
2018-12-18T11:43:16.049Z,21.3
2018-12-18T11:44:16.035Z,15.4
2018-12-18T11:45:16.064Z,18.3
2018-12-18T11:46:16.093Z,18.3
2018-12-18T11:47:16.015Z,15.4
2018-12-18T11:48:16.110Z,18.3
2018-12-18T11:49:16.050Z,15.4
2018-12-18T11:50:16.059Z,9.5
2018-12-18T11:51:16.070Z,18.3
2018-12-18T11:52:16.099Z,18.3
2018-12-18T11:53:16.040Z,18.3
2018-12-18T11:54:16.131Z,27.3
2018-12-18T11:55:16.051Z,21.3
2018-12-18T11:56:16.056Z,15.4
2018-12-18T11:57:16.022Z,9.5
2018-12-18T11:58:16.087Z,30.3
2018-12-18T11:59:16.658Z,24.3
2018-12-18T12:00:16.036Z,18.3
2018-12-18T12:01:16.037Z,21.3
2018-12-18T12:02:16.031Z,21.3
2018-12-18T12:03:16.016Z,12.4
2018-12-18T12:04:16.036Z,12.4
2018-12-18T12:05:16.098Z,12.4
2018-12-18T12:06:16.024Z,12.4
2018-12-18T12:07:16.041Z,9.5
2018-12-18T12:08:16.108Z,15.4
2018-12-18T12:09:16.020Z,21.3
2018-12-18T12:10:16.044Z,15.4
2018-12-18T12:11:16.031Z,15.4
2018-12-18T12:12:16.053Z,21.3
2018-12-18T12:13:16.115Z,15.4
2018-12-18T12:14:16.006Z,15.4
2018-12-18T12:15:16.039Z,9.5
2018-12-18T12:16:16.029Z,15.4
2018-12-18T12:17:16.029Z,12.4
2018-12-18T12:18:16.124Z,9.5
2018-12-18T12:19:16.002Z,12.4
2018-12-18T12:20:16.067Z,9.5
2018-12-18T12:21:16.029Z,12.4
2018-12-18T12:22:16.106Z,15.4
2018-12-18T12:23:16.030Z,15.4
2018-12-18T12:24:16.000Z,12.4
2018-12-18T12:25:16.071Z,12.4
2018-12-18T12:26:16.029Z,24.3
2018-12-18T12:27:16.044Z,18.3
2018-12-18T12:28:16.056Z,21.3
2018-12-18T12:29:16.099Z,27.3
2018-12-18T12:30:15.999Z,33.3
2018-12-18T12:31:16.052Z,24.3
2018-12-18T12:32:16.036Z,24.3
2018-12-18T12:33:16.020Z,24.3
2018-12-18T12:34:16.106Z,24.3
2018-12-18T12:35:16.015Z,18.3
2018-12-18T12:36:16.023Z,12.4
2018-12-18T12:37:16.030Z,15.4
2018-12-18T12:38:16.039Z,24.3
2018-12-18T12:39:16.104Z,24.3
2018-12-18T12:40:16.046Z,21.3
2018-12-18T12:41:16.036Z,27.3
2018-12-18T12:42:16.027Z,18.3
2018-12-18T12:43:16.025Z,15.4
2018-12-18T12:44:16.091Z,15.4
2018-12-18T12:45:16.030Z,15.4
2018-12-18T12:46:16.000Z,15.4
2018-12-18T12:47:16.004Z,15.4
2018-12-18T12:48:16.048Z,12.4
2018-12-18T12:49:16.110Z,3.9
2018-12-18T12:50:16.003Z,6.6
2018-12-18T12:51:16.030Z,15.4
2018-12-18T12:52:16.000Z,12.4
2018-12-18T12:53:16.037Z,12.4
2018-12-18T12:54:16.111Z,12.4
2018-12-18T12:55:16.093Z,12.4
2018-12-18T12:56:16.043Z,18.3
2018-12-18T12:57:16.008Z,12.4
2018-12-18T12:58:16.039Z,12.4
2018-12-18T12:59:16.023Z,18.3
2018-12-18T13:00:18.166Z,12.4
2018-12-18T13:01:18.659Z,18.3
2018-12-18T13:02:19.028Z,15.4
2018-12-18T13:03:15.995Z,12.4
2018-12-18T13:04:16.026Z,18.3
2018-12-18T13:05:16.114Z,21.3
2018-12-18T13:06:18.337Z,12.4
2018-12-18T13:07:19.043Z,15.4
2018-12-18T13:08:16.952Z,6.6
2018-12-18T13:09:18.277Z,15.4
2018-12-18T13:10:16.089Z,9.5
2018-12-18T13:11:16.044Z,15.4
2018-12-18T13:12:16.001Z,21.3
2018-12-18T13:13:16.061Z,6.6
2018-12-18T13:14:16.011Z,9.5
2018-12-18T13:15:16.173Z,18.3
2018-12-18T13:16:16.016Z,30.3
2018-12-18T13:17:16.051Z,24.3
2018-12-18T13:18:16.041Z,18.3
2018-12-18T13:19:16.000Z,15.4
2018-12-18T13:20:16.041Z,18.3
2018-12-18T13:21:16.024Z,15.4
2018-12-18T13:22:16.036Z,21.3
2018-12-18T13:23:16.098Z,18.3
2018-12-18T13:24:16.023Z,18.3
2018-12-18T13:25:16.012Z,21.3